Time;durP1;ratioP1;P1;durP2;ratioP2;P2;SDS_P1;SDS_P2;PMS_P1;PMS_P2;Temp;Humidity;BMP_temperature;BMP_pressure;BME280_temperature;BME280_humidity;BME280_pressure;Samples;Min_cycle;Max_cycle;Signal;HPM_P1;HPM_P2
2023/04/12 00:03:10;;;;;;;4.38;0.70;;;;;;;13.04;45.34;99700.81;10168971;29;20070;-66
2023/04/12 00:08:14;;;;;;;3.70;0.40;;;;;;;13.06;45.02;99687.97;10167315;29;20120;-65
2023/04/12 00:13:16;;;;;;;3.47;0.50;;;;;;;13.03;45.81;99678.41;10181067;29;20056;-65
2023/04/12 00:18:17;;;;;;;3.40;0.35;;;;;;;12.94;46.32;99668.06;10175290;29;20504;-65
2023/04/12 00:23:19;;;;;;;3.67;0.50;;;;;;;12.69;46.66;99666.78;10175955;29;20044;-66
2023/04/12 00:28:21;;;;;;;3.80;0.60;;;;;;;12.61;47.48;99656.19;10179692;29;20052;-65
2023/04/12 00:33:22;;;;;;;4.95;0.90;;;;;;;12.40;48.17;99664.47;10176187;29;20571;-65
2023/04/12 00:38:24;;;;;;;2.80;0.45;;;;;;;12.43;47.78;99656.81;10175141;29;20049;-65
2023/04/12 00:43:26;;;;;;;7.10;0.60;;;;;;;12.21;48.53;99652.63;10177911;29;20060;-66
2023/04/12 00:48:29;;;;;;;9.63;1.40;;;;;;;12.22;48.59;99643.50;10164470;29;20112;-64
2023/04/12 00:53:32;;;;;;;4.35;0.52;;;;;;;12.30;48.27;99646.00;10168352;29;20052;-66
2023/04/12 00:58:33;;;;;;;5.78;0.70;;;;;;;12.25;48.78;99651.19;10165475;29;20044;-68
2023/04/12 01:03:41;;;;;;;3.78;0.60;;;;;;;12.12;48.96;99659.22;10162954;29;20049;-66
2023/04/12 01:08:56;;;;;;;6.57;0.50;;;;;;;11.87;50.57;99654.38;10150776;29;20135;-65
2023/04/12 01:14:06;;;;;;;7.68;1.08;;;;;;;11.57;51.66;99643.03;10153181;29;20424;-66
2023/04/12 01:19:46;;;;;;;6.22;0.50;;;;;;;11.44;52.99;99641.13;10157884;29;20052;-67
2023/04/12 01:25:03;;;;;;;2.80;0.60;;;;;;;11.32;53.91;99617.47;10157150;29;20119;-66
2023/04/12 01:30:07;;;;;;;5.03;0.70;;;;;;;11.34;54.15;99614.59;10159594;29;20055;-67
2023/04/12 01:35:09;;;;;;;4.82;1.45;;;;;;;11.29;55.15;99601.75;10143041;29;20051;-65
2023/04/12 01:40:12;;;;;;;10.30;1.17;;;;;;;11.21;55.49;99596.50;10161265;29;20052;-66
2023/04/12 01:45:13;;;;;;;6.63;1.20;;;;;;;11.17;55.85;99584.47;10149457;29;20056;-63
2023/04/12 01:50:24;;;;;;;8.15;1.13;;;;;;;11.20;56.84;99570.63;10150494;29;20405;-67
2023/04/12 01:55:29;;;;;;;5.15;0.85;;;;;;;11.11;57.38;99561.06;10150159;29;20048;-64
2023/04/12 02:00:34;;;;;;;2.80;0.60;;;;;;;11.06;57.84;99558.16;10153029;29;20048;-65
2023/04/12 02:05:35;;;;;;;5.10;0.63;;;;;;;10.93;58.44;99552.69;10149093;29;20061;-64
2023/04/12 02:10:39;;;;;;;7.00;0.70;;;;;;;10.88;58.55;99551.44;10147038;29;20141;-64
2023/04/12 02:15:40;;;;;;;6.82;1.45;;;;;;;10.83;59.14;99539.59;10147937;29;20459;-64
2023/04/12 02:20:42;;;;;;;4.38;0.60;;;;;;;10.80;59.49;99543.53;10149392;29;20081;-64
2023/04/12 02:25:45;;;;;;;6.60;1.13;;;;;;;10.82;60.13;99535.25;10153142;29;20728;-64
2023/04/12 02:30:47;;;;;;;5.10;1.08;;;;;;;10.78;60.21;99532.16;10149968;29;20063;-65
2023/04/12 02:35:48;;;;;;;4.43;0.70;;;;;;;10.78;60.84;99523.22;10144865;29;20087;-65
2023/04/12 02:40:51;;;;;;;4.50;1.30;;;;;;;10.74;61.26;99506.66;10147786;29;20045;-65
2023/04/12 02:45:52;;;;;;;5.18;0.85;;;;;;;10.68;62.00;99492.19;10149769;29;20509;-66
2023/04/12 02:50:53;;;;;;;7.07;0.80;;;;;;;10.55;62.71;99492.09;10154385;29;20072;-65
2023/04/12 02:55:56;;;;;;;10.02;1.83;;;;;;;10.50;62.79;99489.16;10151977;29;20110;-64
2023/04/12 03:00:58;;;;;;;2.40;0.50;;;;;;;10.47;63.32;99482.31;10152212;29;20061;-65
2023/04/12 03:06:00;;;;;;;6.03;1.13;;;;;;;10.58;63.32;99463.97;10148135;29;20603;-64
2023/04/12 03:11:02;;;;;;;4.10;0.85;;;;;;;10.59;63.52;99449.53;10147945;29;20089;-64
2023/04/12 03:16:21;;;;;;;7.18;1.10;;;;;;;10.62;63.83;99438.38;10124291;29;20085;-63
2023/04/12 03:21:23;;;;;;;4.65;0.90;;;;;;;10.48;64.00;99440.16;10143779;29;20075;-64
2023/04/12 03:26:25;;;;;;;4.90;0.73;;;;;;;10.51;64.38;99426.34;10143763;29;20060;-63
2023/04/12 03:31:26;;;;;;;6.53;1.48;;;;;;;10.65;64.01;99420.00;10145459;29;20119;-63
2023/04/12 03:36:29;;;;;;;8.40;1.33;;;;;;;10.73;64.31;99408.25;10148319;29;20389;-63
2023/04/12 03:41:30;;;;;;;7.72;2.00;;;;;;;10.79;64.62;99385.94;10143622;29;20056;-64
2023/04/12 03:46:32;;;;;;;7.53;1.33;;;;;;;10.76;64.88;99391.69;10148472;29;20506;-64
2023/04/12 03:51:33;;;;;;;3.63;1.23;;;;;;;10.67;65.29;99380.31;10143056;29;20044;-64
2023/04/12 03:56:35;;;;;;;5.97;1.20;;;;;;;10.70;65.71;99374.53;10152179;29;20057;-64
2023/04/12 04:01:37;;;;;;;6.75;1.30;;;;;;;10.66;66.02;99362.53;10141214;29;20114;-64
2023/04/12 04:06:39;;;;;;;9.00;2.20;;;;;;;10.67;66.18;99353.44;10152554;29;20056;-64
2023/04/12 04:11:41;;;;;;;8.55;1.70;;;;;;;10.57;66.81;99344.09;10128207;29;20092;-64
2023/04/12 04:16:42;;;;;;;5.43;1.25;;;;;;;10.46;67.03;99319.44;10139555;29;20128;-64
2023/04/12 04:21:44;;;;;;;5.13;1.40;;;;;;;10.56;67.38;99320.94;10121080;29;20396;-64
2023/04/12 04:26:45;;;;;;;5.55;1.10;;;;;;;10.57;67.56;99310.00;10152503;29;20063;-64
2023/04/12 04:31:47;;;;;;;9.45;2.00;;;;;;;10.47;67.70;99304.16;10152261;29;20056;-64
2023/04/12 04:36:48;;;;;;;6.72;1.98;;;;;;;10.41;68.12;99296.91;10147607;29;20047;-63
2023/04/12 04:41:53;;;;;;;3.00;1.20;;;;;;;10.46;68.26;99278.31;10158779;29;20048;-61
2023/04/12 04:46:57;;;;;;;6.63;1.27;;;;;;;10.43;68.70;99274.19;10159247;29;20139;-61
2023/04/12 04:51:59;;;;;;;8.25;2.35;;;;;;;10.45;68.86;99260.56;10155179;29;20512;-61
2023/04/12 04:57:01;;;;;;;5.47;1.70;;;;;;;10.43;69.08;99255.38;10134168;29;20514;-60
2023/04/12 05:02:02;;;;;;;5.07;1.70;;;;;;;10.41;69.74;99253.94;10153434;29;20103;-61
2023/04/12 05:07:04;;;;;;;6.97;1.50;;;;;;;10.50;69.55;99242.81;10152649;29;20060;-60
2023/04/12 05:12:06;;;;;;;5.40;2.05;;;;;;;10.56;69.58;99224.19;10142557;29;20052;-60
2023/04/12 05:17:07;;;;;;;7.35;2.38;;;;;;;10.47;69.85;99212.81;10149825;29;20052;-60
2023/04/12 05:22:09;;;;;;;3.90;1.35;;;;;;;10.43;70.26;99207.03;10148186;29;20559;-60
2023/04/12 05:27:10;;;;;;;3.70;1.42;;;;;;;10.31;70.79;99200.59;10137591;29;20084;-59
2023/04/12 05:32:12;;;;;;;4.35;1.63;;;;;;;10.21;71.55;99187.53;10147440;29;20056;-60
2023/04/12 05:37:14;;;;;;;6.50;1.67;;;;;;;10.20;71.57;99187.72;10146977;29;20056;-60
2023/04/12 05:42:15;;;;;;;4.15;1.80;;;;;;;10.18;71.29;99187.09;10137528;29;20115;-60
2023/04/12 05:47:16;;;;;;;5.15;1.20;;;;;;;10.11;71.82;99171.78;10143747;29;20124;-61
2023/04/12 05:52:18;;;;;;;5.78;1.17;;;;;;;10.19;71.78;99156.50;10142282;29;20048;-64
2023/04/12 05:57:19;;;;;;;5.93;1.35;;;;;;;10.14;72.08;99149.06;10142902;29;20461;-65
2023/04/12 06:02:24;;;;;;;4.90;1.98;;;;;;;10.07;72.30;99135.63;10140756;29;20104;-66
2023/04/12 06:07:26;;;;;;;7.47;1.20;;;;;;;9.92;72.76;99140.34;10135833;29;20115;-67
2023/04/12 06:12:28;;;;;;;6.10;1.25;;;;;;;9.97;72.91;99121.75;10140962;29;20147;-66
2023/04/12 06:17:29;;;;;;;4.57;1.20;;;;;;;10.05;72.82;99121.59;10122164;29;20735;-67
2023/04/12 06:22:31;;;;;;;3.10;1.08;;;;;;;9.99;73.14;99105.44;10127914;29;20124;-66
2023/04/12 06:27:32;;;;;;;2.88;1.50;;;;;;;9.94;73.18;99108.75;10139183;29;20052;-66
2023/04/12 06:32:34;;;;;;;6.25;1.80;;;;;;;10.00;73.21;99086.47;10137948;29;20132;-66
2023/04/12 06:37:36;;;;;;;5.90;1.88;;;;;;;10.04;73.22;99085.03;10141490;29;20093;-66
2023/04/12 06:42:38;;;;;;;4.90;1.48;;;;;;;10.08;73.45;99074.72;10139544;29;20048;-66
2023/04/12 06:47:39;;;;;;;3.72;0.98;;;;;;;10.03;73.43;99074.47;10145310;29;20057;-67
2023/04/12 06:52:40;;;;;;;7.97;1.60;;;;;;;9.98;73.57;99066.22;10137269;29;20136;-65
2023/04/12 06:57:43;;;;;;;4.47;1.13;;;;;;;10.03;73.65;99047.63;10137355;29;20052;-65
2023/04/12 07:02:45;;;;;;;3.38;1.42;;;;;;;10.01;73.99;99039.81;10130256;29;20072;-65
2023/04/12 07:07:46;;;;;;;4.28;1.08;;;;;;;10.02;74.18;99029.88;10146180;29;20984;-65
2023/04/12 07:12:48;;;;;;;3.10;1.08;;;;;;;9.92;74.50;99025.72;10142098;29;20401;-67
2023/04/12 07:17:50;;;;;;;3.38;1.48;;;;;;;10.02;74.36;99005.72;10147310;29;20052;-65
2023/04/12 07:22:52;;;;;;;5.47;1.40;;;;;;;9.91;74.64;98991.88;10147889;29;20565;-65
2023/04/12 07:27:54;;;;;;;3.33;0.82;;;;;;;9.91;74.72;98988.34;10168329;29;20069;-64
2023/04/12 07:32:55;;;;;;;3.35;1.20;;;;;;;9.97;74.84;98963.38;10194888;29;20048;-64
2023/04/12 07:38:13;;;;;;;3.80;1.20;;;;;;;10.05;74.76;98957.81;10193303;29;20068;-65
2023/04/12 07:43:17;;;;;;;5.30;0.90;;;;;;;9.88;75.03;98953.88;10195365;29;20120;-65
2023/04/12 07:48:19;;;;;;;5.78;1.15;;;;;;;9.95;75.18;98945.81;10189174;29;20036;-64
2023/04/12 07:53:26;;;;;;;1.73;0.85;;;;;;;10.00;75.27;98941.50;10186073;29;20075;-64
2023/04/12 07:58:27;;;;;;;1.13;0.60;;;;;;;9.99;75.25;98933.63;10184880;29;20056;-64
2023/04/12 08:03:29;;;;;;;3.78;1.10;;;;;;;9.94;75.35;98923.53;10184824;29;20089;-62
2023/04/12 08:08:31;;;;;;;3.83;1.20;;;;;;;10.14;75.07;98915.47;10178427;29;20128;-64
2023/04/12 08:13:34;;;;;;;2.78;0.93;;;;;;;10.20;75.45;98913.81;10166099;29;20048;-63
2023/04/12 08:18:35;;;;;;;3.35;1.40;;;;;;;10.24;75.62;98901.59;10183190;29;20052;-62
2023/04/12 08:23:37;;;;;;;3.08;1.60;;;;;;;10.38;75.52;98891.69;10156282;29;20056;-62
2023/04/12 08:28:38;;;;;;;1.52;0.90;;;;;;;10.37;75.70;98898.09;10165108;29;20056;-62
2023/04/12 08:33:40;;;;;;;4.10;1.10;;;;;;;10.41;75.86;98884.03;10173692;29;20063;-63
2023/04/12 08:38:41;;;;;;;3.78;1.20;;;;;;;10.57;75.71;98885.44;10167008;29;20051;-63
2023/04/12 08:43:47;;;;;;;2.90;0.80;;;;;;;10.55;75.83;98882.13;10171974;29;20074;-63
2023/04/12 08:48:53;;;;;;;4.30;1.13;;;;;;;10.67;75.75;98879.63;10187064;29;20076;-64
2023/04/12 08:53:55;;;;;;;1.67;0.88;;;;;;;10.61;75.97;98872.41;10144021;29;20080;-63
2023/04/12 08:58:58;;;;;;;2.22;1.00;;;;;;;10.71;75.94;98867.41;10167057;29;20060;-63
2023/04/12 09:04:05;;;;;;;2.38;0.80;;;;;;;10.76;75.84;98861.38;10162718;29;20067;-64
2023/04/12 09:09:07;;;;;;;;;;;;;;;10.75;75.50;98843.59;10173466;29;20052;-65
2023/04/12 09:14:24;;;;;;;3.25;1.00;;;;;;;10.84;75.42;98853.06;10169153;29;19961;-65
2023/04/12 09:19:34;;;;;;;1.57;0.80;;;;;;;10.85;75.47;98842.09;10160805;29;20053;-63
2023/04/12 09:24:48;;;;;;;1.92;0.80;;;;;;;10.83;75.86;98828.03;10172202;29;20111;-63
2023/04/12 09:29:50;;;;;;;2.50;0.85;;;;;;;10.94;75.82;98812.25;10170452;29;20061;-64
2023/04/12 09:34:57;;;;;;;3.05;1.00;;;;;;;11.03;75.74;98802.91;10179411;29;20084;-65
2023/04/12 09:40:06;;;;;;;5.10;1.10;;;;;;;11.06;75.87;98805.19;10171533;29;20052;-63
2023/04/12 09:45:20;;;;;;;1.77;0.90;;;;;;;11.04;76.03;98788.44;10181208;29;20051;-64
2023/04/12 09:50:27;;;;;;;2.15;1.40;;;;;;;11.10;75.96;98774.94;10176310;29;20135;-63
2023/04/12 09:55:30;;;;;;;2.80;1.23;;;;;;;11.10;75.87;98779.50;10181061;29;20060;-63
2023/04/12 10:00:33;;;;;;;3.35;1.52;;;;;;;11.22;75.82;98764.28;10176915;29;20059;-63
2023/04/12 10:05:35;;;;;;;5.32;1.38;;;;;;;11.30;75.77;98752.44;10176689;29;20048;-64
2023/04/12 10:10:37;;;;;;;3.20;1.15;;;;;;;11.25;76.35;98753.06;10162032;29;20067;-63
2023/04/12 10:15:39;;;;;;;3.15;1.42;;;;;;;11.35;75.97;98741.00;10154397;29;20095;-60
2023/04/12 10:20:40;;;;;;;3.50;1.60;;;;;;;11.41;76.00;98737.44;10143238;29;20055;-57
2023/04/12 10:25:45;;;;;;;4.93;2.03;;;;;;;11.45;76.45;98734.09;10137094;29;20094;-58
2023/04/12 10:30:49;;;;;;;5.63;1.75;;;;;;;11.49;76.33;98737.13;10146652;29;20080;-58
2023/04/12 10:36:02;;;;;;;3.05;1.42;;;;;;;11.34;76.91;98717.84;10144956;29;20056;-58
2023/04/12 10:41:16;;;;;;;3.60;2.20;;;;;;;11.26;76.86;98711.69;10141669;29;20123;-58
2023/04/12 10:46:39;;;;;;;6.97;1.90;;;;;;;11.40;77.31;98701.63;10142789;29;20063;-58
2023/04/12 10:51:59;;;;;;;4.68;2.47;;;;;;;11.49;77.37;98699.47;10147836;29;20048;-59
2023/04/12 10:57:02;;;;;;;6.00;2.30;;;;;;;11.58;77.25;98694.63;10172545;29;20064;-65
2023/04/12 11:02:08;;;;;;;7.80;2.15;;;;;;;11.56;77.54;98689.47;10177953;29;20051;-64
2023/04/12 11:07:10;;;;;;;4.25;2.50;;;;;;;11.58;77.67;98691.94;10176964;29;20507;-63
2023/04/12 11:12:14;;;;;;;9.52;2.55;;;;;;;11.62;77.44;98675.13;10177659;29;20050;-62
2023/04/12 11:17:15;;;;;;;8.90;3.65;;;;;;;11.70;77.63;98672.13;10156538;29;20052;-64
2023/04/12 11:22:19;;;;;;;8.00;3.10;;;;;;;11.84;77.96;98666.59;10164777;29;20128;-62
2023/04/12 11:27:22;;;;;;;6.85;3.20;;;;;;;11.81;78.00;98669.72;10165034;29;20076;-62
2023/04/12 11:32:27;;;;;;;9.63;3.28;;;;;;;12.00;77.79;98663.28;10161415;29;20060;-60
2023/04/12 11:37:30;;;;;;;6.93;3.00;;;;;;;12.08;77.81;98643.31;10173630;29;20060;-62
2023/04/12 11:42:31;;;;;;;6.35;3.55;;;;;;;12.35;77.93;98626.78;10166955;29;20079;-60
2023/04/12 11:47:33;;;;;;;6.30;2.78;;;;;;;12.41;78.01;98626.66;10153179;29;20065;-62
2023/04/12 11:52:34;;;;;;;6.50;2.78;;;;;;;12.34;78.21;98630.50;10148300;29;20056;-61
2023/04/12 11:57:37;;;;;;;7.85;3.10;;;;;;;12.50;77.88;98613.69;10173506;29;20092;-63
2023/04/12 12:02:39;;;;;;;9.68;4.18;;;;;;;12.52;78.10;98616.97;10118891;29;20481;-61
2023/04/12 12:07:51;;;;;;;10.80;4.15;;;;;;;12.67;78.09;98598.47;10167689;29;20060;-61
2023/04/12 12:12:56;;;;;;;8.60;3.30;;;;;;;12.75;78.23;98600.00;10170037;29;20138;-62
2023/04/12 12:18:00;;;;;;;8.18;3.72;;;;;;;12.70;78.40;98586.41;10148397;29;20048;-63
2023/04/12 12:23:02;;;;;;;5.05;2.33;;;;;;;12.70;78.36;98583.72;10160180;29;20063;-62
2023/04/12 12:28:04;;;;;;;5.57;2.20;;;;;;;12.75;79.22;98572.22;10169518;29;20053;-64
2023/04/12 12:33:06;;;;;;;4.45;3.20;;;;;;;12.73;78.63;98579.72;10177736;29;20111;-64
2023/04/12 12:38:09;;;;;;;6.10;3.40;;;;;;;12.75;79.12;98585.72;10186351;29;20155;-65
2023/04/12 12:43:17;;;;;;;7.43;3.05;;;;;;;12.80;79.29;98577.75;10166335;29;20103;-64
2023/04/12 12:48:20;;;;;;;5.32;2.72;;;;;;;12.85;78.74;98583.25;10173021;29;20052;-65
2023/04/12 12:53:21;;;;;;;7.68;2.42;;;;;;;12.94;78.75;98586.44;10181234;29;20055;-61
2023/04/12 12:58:25;;;;;;;8.18;2.95;;;;;;;12.85;78.86;98572.44;10171203;29;20076;-62
2023/04/12 13:03:26;;;;;;;6.20;2.42;;;;;;;12.75;78.79;98574.91;10179546;29;20048;-65
2023/04/12 13:08:33;;;;;;;7.13;2.80;;;;;;;12.83;78.92;98590.75;10155221;29;20064;-64
2023/04/12 13:13:35;;;;;;;10.07;2.50;;;;;;;12.62;79.62;98586.75;10166126;29;20044;-66
2023/04/12 13:18:36;;;;;;;8.43;2.42;;;;;;;12.59;79.92;98568.34;10141732;29;20065;-65
2023/04/12 13:23:38;;;;;;;3.40;1.77;;;;;;;12.64;79.44;98555.81;10150569;29;20148;-64
2023/04/12 13:28:39;;;;;;;5.20;2.50;;;;;;;12.80;79.49;98566.97;10149658;29;20112;-65
2023/04/12 13:33:41;;;;;;;5.55;2.78;;;;;;;12.90;79.47;98557.22;10144603;29;20445;-64
2023/04/12 13:38:42;;;;;;;8.07;2.83;;;;;;;12.94;79.61;98562.97;10144730;29;20052;-65
2023/04/12 13:43:44;;;;;;;4.90;2.22;;;;;;;13.05;79.95;98545.97;10151142;29;20492;-64
2023/04/12 13:48:45;;;;;;;7.30;3.80;;;;;;;13.17;79.96;98550.50;10155046;29;20052;-64
2023/04/12 13:53:47;;;;;;;7.75;3.05;;;;;;;13.16;79.92;98548.88;10149189;29;20115;-64
2023/04/12 13:58:48;;;;;;;4.78;2.97;;;;;;;13.12;80.09;98553.91;10134400;29;20086;-65
2023/04/12 14:03:52;;;;;;;6.30;2.40;;;;;;;13.27;79.92;98543.44;10142776;29;20059;-65
2023/04/12 14:08:53;;;;;;;2.72;1.95;;;;;;;13.49;80.09;98537.44;10150709;29;20048;-65
2023/04/12 14:13:55;;;;;;;3.83;2.22;;;;;;;13.79;80.22;98541.78;10150833;29;20056;-65
2023/04/12 14:18:56;;;;;;;3.75;1.30;;;;;;;13.66;80.40;98543.72;10144159;29;20508;-58
2023/04/12 14:23:58;;;;;;;2.47;1.20;;;;;;;13.80;79.73;98529.91;10144082;29;20440;-61
2023/04/12 14:28:59;;;;;;;1.63;0.85;;;;;;;13.81;79.74;98507.25;10127220;29;20067;-61
2023/04/12 14:34:02;;;;;;;2.20;1.10;;;;;;;13.63;79.75;98540.69;10148345;29;20066;-61
2023/04/12 14:39:03;;;;;;;2.47;1.20;;;;;;;13.59;79.73;98539.53;10146279;29;20084;-60
2023/04/12 14:44:07;;;;;;;3.65;1.15;;;;;;;13.54;79.50;98559.13;10129594;29;20389;-61
2023/04/12 14:49:08;;;;;;;5.53;1.42;;;;;;;13.48;79.43;98554.69;10144286;29;20072;-60
2023/04/12 14:54:10;;;;;;;3.05;0.95;;;;;;;13.56;79.44;98548.09;10141897;29;20655;-61
2023/04/12 14:59:12;;;;;;;5.20;0.98;;;;;;;13.51;79.45;98548.81;10142549;29;20682;-60
2023/04/12 15:04:13;;;;;;;1.40;0.80;;;;;;;13.36;79.81;98552.00;10137894;29;20060;-60
2023/04/12 15:09:16;;;;;;;1.65;0.95;;;;;;;13.34;79.84;98561.41;10123413;29;20048;-60
2023/04/12 15:14:19;;;;;;;2.90;0.63;;;;;;;13.43;79.78;98562.69;10142428;29;20048;-61
2023/04/12 15:19:23;;;;;;;1.85;0.50;;;;;;;13.72;79.84;98549.19;10138717;29;20140;-61
2023/04/12 15:24:25;;;;;;;5.00;1.33;;;;;;;14.13;79.73;98555.34;10126582;29;20562;-61
2023/04/12 15:29:27;;;;;;;1.13;0.57;;;;;;;14.14;79.50;98556.97;10133520;29;20444;-62
2023/04/12 15:34:28;;;;;;;3.00;0.52;;;;;;;14.06;78.79;98569.03;10134804;29;20083;-62
2023/04/12 15:39:30;;;;;;;1.15;0.50;;;;;;;14.05;78.39;98562.78;10167544;29;20104;-66
2023/04/12 15:44:32;;;;;;;2.28;0.65;;;;;;;14.04;78.35;98598.16;10169365;29;20076;-66
2023/04/12 15:49:33;;;;;;;0.57;0.40;;;;;;;13.97;78.28;98581.28;10158585;29;20535;-67
2023/04/12 15:54:40;;;;;;;0.82;0.52;;;;;;;13.88;78.70;98597.03;10156419;29;20060;-66
2023/04/12 15:59:44;;;;;;;1.85;0.30;;;;;;;13.75;78.79;98598.16;10172798;29;20067;-67
2023/04/12 16:04:46;;;;;;;1.98;0.30;;;;;;;13.72;78.26;98612.13;10158047;29;20048;-67
2023/04/12 16:09:47;;;;;;;0.88;0.30;;;;;;;13.74;78.14;98620.00;10163584;29;20044;-68
2023/04/12 16:14:49;;;;;;;1.13;0.22;;;;;;;13.76;78.28;98620.56;10124079;29;20157;-67
2023/04/12 16:19:53;;;;;;;0.43;0.30;;;;;;;13.87;77.96;98617.03;10228668;23;20024;-68
2023/04/12 16:24:55;;;;;;;0.52;0.30;;;;;;;14.17;77.40;98614.06;10266051;28;20051;-68
2023/04/12 16:29:56;;;;;;;0.17;0.10;;;;;;;14.24;76.36;98613.94;10252642;28;20051;-68
2023/04/12 17:06:41;;;;;;;1.70;0.10;;;;;;;14.05;73.44;98608.72;11174045;23;20079;-67
2023/04/12 17:11:42;;;;;;;0.20;0.10;;;;;;;14.19;72.97;98594.91;11014316;23;20398;-66
2023/04/12 17:16:45;;;;;;;1.02;0.38;;;;;;;14.29;72.48;98578.88;10263445;28;20237;-65
2023/04/12 17:21:46;;;;;;;0.93;0.20;;;;;;;14.22;72.02;98607.94;10267014;28;20123;-66
2023/04/12 17:26:48;;;;;;;0.35;0.10;;;;;;;14.17;72.01;98613.25;10264598;28;20043;-66
2023/04/12 17:31:50;;;;;;;1.45;0.20;;;;;;;14.00;71.45;98619.44;10253387;28;20047;-64
2023/04/12 17:36:55;;;;;;;1.25;0.20;;;;;;;13.81;71.46;98621.50;10260967;28;20074;-63
2023/04/12 17:41:56;;;;;;;0.93;0.20;;;;;;;13.68;71.23;98627.16;10265275;28;20129;-62
2023/04/12 17:46:58;;;;;;;1.13;0.20;;;;;;;13.66;70.95;98630.13;10261167;28;20083;-65
2023/04/12 17:52:00;;;;;;;0.20;0.10;;;;;;;13.43;71.38;98632.88;10263712;28;20079;-63
2023/04/12 17:57:02;;;;;;;0.30;0.10;;;;;;;13.38;71.42;98644.34;10260297;28;20047;-65
2023/04/12 18:02:03;;;;;;;0.50;0.20;;;;;;;13.34;71.51;98658.56;10250817;28;20062;-64
2023/04/12 18:07:08;;;;;;;0.50;0.20;;;;;;;13.22;71.47;98669.34;10263567;28;20054;-65
2023/04/12 18:12:10;;;;;;;0.75;0.30;;;;;;;13.14;71.95;98667.00;10258835;28;20051;-63
2023/04/12 18:17:12;;;;;;;1.15;0.30;;;;;;;13.14;71.90;98680.47;10234787;28;20119;-66
2023/04/12 18:22:13;;;;;;;2.05;0.20;;;;;;;13.10;72.17;98682.81;10231192;28;20055;-65
2023/04/12 18:27:14;;;;;;;0.80;0.30;;;;;;;13.11;71.61;98711.44;10230731;28;20055;-64
2023/04/12 18:32:16;;;;;;;2.67;0.40;;;;;;;13.13;71.61;98727.38;10233859;28;20121;-65
2023/04/12 18:37:18;;;;;;;0.88;0.38;;;;;;;13.08;71.79;98746.97;10217043;28;20072;-66
2023/04/12 18:42:20;;;;;;;0.47;0.13;;;;;;;12.93;71.49;98785.16;10209719;28;20066;-66
2023/04/12 18:47:21;;;;;;;0.95;0.13;;;;;;;12.72;70.92;98785.66;10214220;28;20059;-67
2023/04/12 18:52:22;;;;;;;0.90;0.10;;;;;;;12.44;69.65;98787.91;10211436;28;20060;-67
2023/04/12 18:57:24;;;;;;;0.50;0.10;;;;;;;12.18;67.95;98809.78;10214344;28;20059;-68
2023/04/12 19:02:27;;;;;;;0.30;0.10;;;;;;;12.04;68.41;98836.84;10226400;28;20051;-66
2023/04/12 19:07:28;;;;;;;0.32;0.00;;;;;;;11.62;67.90;98878.84;10219744;28;20110;-67
2023/04/12 19:12:31;;;;;;;0.00;0.00;;;;;;;11.43;68.54;98902.16;10228513;28;20073;-65
2023/04/12 19:17:35;;;;;;;0.20;0.00;;;;;;;11.24;68.98;98899.38;10219624;28;20130;-63
2023/04/12 19:22:37;;;;;;;0.00;0.00;;;;;;;10.88;69.78;98919.63;10217471;28;20051;-63
2023/04/12 19:27:38;;;;;;;0.00;0.00;;;;;;;10.74;69.76;98909.94;10224347;28;20044;-64
2023/04/12 19:32:41;;;;;;;0.35;0.00;;;;;;;10.65;69.78;98900.50;10229604;28;20055;-64
2023/04/12 19:37:43;;;;;;;0.10;0.00;;;;;;;10.60;68.38;98876.94;10218126;28;20055;-65
2023/04/12 19:42:45;;;;;;;0.10;0.00;;;;;;;10.76;68.59;98858.69;10223737;28;20051;-66
2023/04/12 19:47:46;;;;;;;0.63;0.10;;;;;;;10.86;68.50;98869.78;10216818;28;20049;-66
2023/04/12 19:52:48;;;;;;;1.85;0.20;;;;;;;10.89;68.36;98869.38;10225241;28;20210;-65
2023/04/12 19:57:50;;;;;;;0.20;0.10;;;;;;;10.82;68.20;98871.25;10220030;28;20044;-65
2023/04/12 20:02:52;;;;;;;0.55;0.10;;;;;;;10.78;68.38;98870.88;10224659;28;20103;-65
2023/04/12 20:07:54;;;;;;;0.30;0.10;;;;;;;10.75;68.57;98874.00;10220094;28;20070;-65
2023/04/12 20:12:56;;;;;;;0.63;0.30;;;;;;;10.60;68.94;98881.50;10220428;28;20063;-62
2023/04/12 20:17:57;;;;;;;0.30;0.10;;;;;;;10.60;68.73;98876.13;10222897;28;20066;-61
2023/04/12 20:22:59;;;;;;;0.68;0.10;;;;;;;10.44;69.27;98880.09;10221671;28;20047;-62
2023/04/12 20:28:01;;;;;;;0.60;0.20;;;;;;;10.32;69.86;98874.56;10226734;28;20051;-62
2023/04/12 20:33:03;;;;;;;0.40;0.10;;;;;;;10.26;69.76;98892.28;10230612;28;20054;-63
2023/04/12 20:38:05;;;;;;;1.67;0.20;;;;;;;10.19;70.03;98891.50;10227624;28;20056;-62
2023/04/12 20:43:07;;;;;;;0.77;0.20;;;;;;;10.05;70.58;98906.81;10215944;28;20431;-61
2023/04/12 20:48:09;;;;;;;2.88;0.38;;;;;;;9.92;71.30;98918.38;10215056;28;20047;-65
2023/04/12 20:53:16;;;;;;;0.40;0.10;;;;;;;9.90;71.12;98912.38;10216765;28;20107;-66
2023/04/12 20:58:18;;;;;;;0.45;0.10;;;;;;;9.84;71.28;98907.84;10209711;28;20415;-66
2023/04/12 21:03:19;;;;;;;0.60;0.20;;;;;;;9.78;71.52;98921.28;10214731;28;20055;-64
2023/04/12 21:08:22;;;;;;;0.35;0.20;;;;;;;9.71;71.73;98940.84;10216582;28;20051;-65
2023/04/12 21:13:25;;;;;;;1.65;0.20;;;;;;;9.64;71.92;98941.91;10216674;28;20066;-65
2023/04/12 21:18:27;;;;;;;2.13;0.20;;;;;;;9.57;72.18;98949.94;10219740;28;20044;-65
2023/04/12 21:23:29;;;;;;;1.15;0.10;;;;;;;9.55;72.36;98951.16;10232470;28;20566;-64
2023/04/12 21:28:30;;;;;;;1.42;0.38;;;;;;;9.47;72.66;98962.91;10224063;28;20055;-65
2023/04/12 21:33:32;;;;;;;0.90;0.30;;;;;;;9.41;72.61;98958.38;10218813;28;20047;-66
2023/04/12 21:38:34;;;;;;;1.10;0.30;;;;;;;9.38;73.06;98973.03;10226914;28;20063;-64
2023/04/12 21:43:39;;;;;;;0.35;0.10;;;;;;;9.38;72.71;98988.25;10219887;28;20107;-64
2023/04/12 21:48:41;;;;;;;1.25;0.30;;;;;;;9.33;72.73;98983.50;10221053;28;20122;-65
2023/04/12 21:53:43;;;;;;;0.63;0.25;;;;;;;9.27;73.25;98982.47;10218669;28;20075;-65
2023/04/12 21:58:44;;;;;;;0.90;0.10;;;;;;;9.19;73.32;98997.91;10222203;28;20058;-65
2023/04/12 22:03:46;;;;;;;1.90;0.30;;;;;;;9.07;73.78;98993.09;10217836;28;20558;-64
2023/04/12 22:08:48;;;;;;;1.13;0.32;;;;;;;9.02;73.88;98986.69;10216742;28;20054;-65
2023/04/12 22:13:49;;;;;;;1.60;0.30;;;;;;;9.05;73.82;98971.03;10215814;28;20047;-65
2023/04/12 22:18:51;;;;;;;0.68;0.28;;;;;;;9.07;73.21;98976.22;10218037;28;20597;-64
2023/04/12 22:23:54;;;;;;;1.40;0.20;;;;;;;9.13;73.28;98989.63;10219131;28;20054;-64
2023/04/12 22:28:55;;;;;;;2.72;0.30;;;;;;;9.14;73.45;98987.75;10215194;28;20058;-64
2023/04/12 22:33:56;;;;;;;0.52;0.10;;;;;;;9.17;73.12;98990.06;10214363;28;20082;-65
2023/04/12 22:38:58;;;;;;;1.00;0.28;;;;;;;9.10;73.66;98999.91;10219776;28;20146;-65
2023/04/12 22:44:02;;;;;;;0.40;0.25;;;;;;;9.12;73.84;98993.34;10212464;28;20052;-65
2023/04/12 22:49:04;;;;;;;0.35;0.20;;;;;;;9.11;73.41;98991.69;10212993;28;20511;-64
2023/04/12 22:54:07;;;;;;;2.55;0.20;;;;;;;9.05;73.12;98991.66;10218192;28;20075;-64
2023/04/12 22:59:13;;;;;;;1.17;0.70;;;;;;;8.96;73.52;98993.66;10217935;28;20051;-65
2023/04/12 23:04:15;;;;;;;0.43;0.20;;;;;;;8.95;73.55;98980.50;10215015;28;20103;-65
2023/04/12 23:09:18;;;;;;;1.63;0.20;;;;;;;8.93;73.46;98981.50;10213270;28;20480;-65
2023/04/12 23:14:19;;;;;;;0.20;0.10;;;;;;;8.86;73.84;98983.31;10218204;28;20051;-65
2023/04/12 23:19:22;;;;;;;1.40;0.20;;;;;;;8.85;73.59;98979.00;10216945;28;20047;-65
2023/04/12 23:24:23;;;;;;;1.10;0.35;;;;;;;8.81;73.73;98983.09;10218175;28;20118;-65
2023/04/12 23:29:25;;;;;;;1.30;0.25;;;;;;;8.80;73.75;98976.06;10223235;28;20058;-65
2023/04/12 23:34:29;;;;;;;0.30;0.20;;;;;;;8.77;73.77;98972.97;10213909;28;20051;-65
2023/04/12 23:39:30;;;;;;;1.00;0.20;;;;;;;8.69;73.51;98982.00;10217926;28;20055;-65
2023/04/12 23:44:32;;;;;;;1.58;0.30;;;;;;;8.69;73.50;98977.47;10218638;28;20056;-65
2023/04/12 23:49:33;;;;;;;2.85;0.40;;;;;;;8.68;73.87;98969.63;10225392;28;20067;-65
2023/04/12 23:54:34;;;;;;;1.63;0.50;;;;;;;8.63;73.37;98974.75;10225092;28;20147;-65
2023/04/12 23:59:36;;;;;;;4.25;0.30;;;;;;;8.48;74.18;98985.59;10220986;28;20055;-65
